Palmer, Nebraska
Current Conditions -  °F | °C
As of 4:53 PM on Thursday 23 Oct 2014 (Local Time) from KGRI Reporting Station
Clear Clear  
Wind Chill: 64°   Ceiling: Unl
Heat Index: 64°   Visibility: 10mi
Dew Point: 55°   Wind: 8mph
Humidity: 72%   Direction: 180°S
Pressure: 30.01"   Gusts: NA
Location:  41.22°N, 98.26°W
Report Text: KGRI 232153Z 18007KT 10SM CLR 18/13 A3001 RMK AO2 SLP163 T01780128
Loading
Personal Weather Stations






























Interactive Weather Map
Tropical Storm Tracking
New forecast layout! Learn more

10-Day Weather Forecast

Advertisements
Track Severe Weather on mobile